sensor_id;sensor_type;location;lat;lon;timestamp;temperature;humidity
79024;DHT22;70306;44.764;37.688;2023-06-22T00:00:38;23.30;67.91
79024;DHT22;70306;44.764;37.688;2023-06-22T00:01:43;23.28;67.28
79024;DHT22;70306;44.764;37.688;2023-06-22T00:02:44;23.27;66.93
79024;DHT22;70306;44.764;37.688;2023-06-22T00:03:47;23.21;65.61
79024;DHT22;70306;44.764;37.688;2023-06-22T00:04:49;23.20;67.01
79024;DHT22;70306;44.764;37.688;2023-06-22T00:05:51;23.13;65.09
79024;DHT22;70306;44.764;37.688;2023-06-22T00:06:52;23.09;66.55
79024;DHT22;70306;44.764;37.688;2023-06-22T00:07:54;23.02;65.09
79024;DHT22;70306;44.764;37.688;2023-06-22T00:08:56;22.88;65.99
79024;DHT22;70306;44.764;37.688;2023-06-22T00:09:57;22.91;65.64
79024;DHT22;70306;44.764;37.688;2023-06-22T00:10:59;22.93;65.53
79024;DHT22;70306;44.764;37.688;2023-06-22T00:12:01;22.85;65.39
79024;DHT22;70306;44.764;37.688;2023-06-22T00:13:03;22.86;65.56
79024;DHT22;70306;44.764;37.688;2023-06-22T00:14:05;22.77;65.55
79024;DHT22;70306;44.764;37.688;2023-06-22T00:15:06;22.75;66.41
79024;DHT22;70306;44.764;37.688;2023-06-22T00:16:08;22.72;66.97
79024;DHT22;70306;44.764;37.688;2023-06-22T00:17:10;22.75;66.14
79024;DHT22;70306;44.764;37.688;2023-06-22T00:18:11;22.77;66.30
79024;DHT22;70306;44.764;37.688;2023-06-22T00:19:15;22.79;66.26
79024;DHT22;70306;44.764;37.688;2023-06-22T00:20:17;22.75;66.35
79024;DHT22;70306;44.764;37.688;2023-06-22T00:21:19;22.64;66.86
79024;DHT22;70306;44.764;37.688;2023-06-22T00:22:24;22.64;67.04
79024;DHT22;70306;44.764;37.688;2023-06-22T00:23:29;22.61;66.65
79024;DHT22;70306;44.764;37.688;2023-06-22T00:24:35;22.55;66.91
79024;DHT22;70306;44.764;37.688;2023-06-22T00:25:38;22.58;68.13
79024;DHT22;70306;44.764;37.688;2023-06-22T00:26:41;22.66;69.07
79024;DHT22;70306;44.764;37.688;2023-06-22T00:27:44;22.72;68.83
79024;DHT22;70306;44.764;37.688;2023-06-22T00:28:46;22.77;69.50
79024;DHT22;70306;44.764;37.688;2023-06-22T00:29:51;22.81;67.15
79024;DHT22;70306;44.764;37.688;2023-06-22T00:30:53;22.76;68.69
79024;DHT22;70306;44.764;37.688;2023-06-22T00:31:55;22.75;67.21
79024;DHT22;70306;44.764;37.688;2023-06-22T00:32:57;22.72;67.49
79024;DHT22;70306;44.764;37.688;2023-06-22T00:33:59;22.79;69.49
79024;DHT22;70306;44.764;37.688;2023-06-22T00:35:01;22.85;68.18
79024;DHT22;70306;44.764;37.688;2023-06-22T00:36:05;22.83;67.14
79024;DHT22;70306;44.764;37.688;2023-06-22T00:37:08;22.82;67.45
79024;DHT22;70306;44.764;37.688;2023-06-22T00:38:12;22.75;66.47
79024;DHT22;70306;44.764;37.688;2023-06-22T00:39:17;22.72;67.18
79024;DHT22;70306;44.764;37.688;2023-06-22T00:40:18;22.66;66.92
79024;DHT22;70306;44.764;37.688;2023-06-22T00:41:23;22.66;67.24
79024;DHT22;70306;44.764;37.688;2023-06-22T00:42:24;22.71;67.32
79024;DHT22;70306;44.764;37.688;2023-06-22T00:43:26;22.69;67.77
79024;DHT22;70306;44.764;37.688;2023-06-22T00:44:27;22.68;66.52
79024;DHT22;70306;44.764;37.688;2023-06-22T00:45:29;22.71;67.43
79024;DHT22;70306;44.764;37.688;2023-06-22T00:46:31;22.65;66.65
79024;DHT22;70306;44.764;37.688;2023-06-22T00:47:35;22.65;66.76
79024;DHT22;70306;44.764;37.688;2023-06-22T00:48:39;22.62;66.45
79024;DHT22;70306;44.764;37.688;2023-06-22T00:49:43;22.62;67.05
79024;DHT22;70306;44.764;37.688;2023-06-22T00:50:45;22.66;68.69
79024;DHT22;70306;44.764;37.688;2023-06-22T00:51:47;22.65;66.81
79024;DHT22;70306;44.764;37.688;2023-06-22T00:52:55;22.64;67.55
79024;DHT22;70306;44.764;37.688;2023-06-22T00:54:00;22.71;69.97
79024;DHT22;70306;44.764;37.688;2023-06-22T00:55:02;22.75;66.71
79024;DHT22;70306;44.764;37.688;2023-06-22T00:56:05;22.75;67.42
79024;DHT22;70306;44.764;37.688;2023-06-22T00:57:10;22.77;68.56
79024;DHT22;70306;44.764;37.688;2023-06-22T00:58:15;22.85;67.81
79024;DHT22;70306;44.764;37.688;2023-06-22T00:59:17;22.88;67.51
79024;DHT22;70306;44.764;37.688;2023-06-22T01:00:19;22.85;65.84
79024;DHT22;70306;44.764;37.688;2023-06-22T01:01:21;22.82;68.02
79024;DHT22;70306;44.764;37.688;2023-06-22T01:02:24;22.86;66.47
79024;DHT22;70306;44.764;37.688;2023-06-22T01:03:26;22.89;68.36
79024;DHT22;70306;44.764;37.688;2023-06-22T01:04:35;22.88;67.46
79024;DHT22;70306;44.764;37.688;2023-06-22T01:05:38;22.83;69.26
79024;DHT22;70306;44.764;37.688;2023-06-22T01:06:47;22.88;69.75
79024;DHT22;70306;44.764;37.688;2023-06-22T01:09:19;22.69;65.96
79024;DHT22;70306;44.764;37.688;2023-06-22T01:10:28;22.59;66.04
79024;DHT22;70306;44.764;37.688;2023-06-22T01:11:39;22.54;66.70
79024;DHT22;70306;44.764;37.688;2023-06-22T01:12:55;22.58;66.04
79024;DHT22;70306;44.764;37.688;2023-06-22T01:15:44;22.61;68.11
79024;DHT22;70306;44.764;37.688;2023-06-22T01:16:48;22.58;67.39
79024;DHT22;70306;44.764;37.688;2023-06-22T01:17:52;22.61;68.94
79024;DHT22;70306;44.764;37.688;2023-06-22T01:18:56;22.65;67.93
79024;DHT22;70306;44.764;37.688;2023-06-22T01:19:59;22.64;68.03
79024;DHT22;70306;44.764;37.688;2023-06-22T01:21:02;22.68;67.29
79024;DHT22;70306;44.764;37.688;2023-06-22T01:22:10;22.71;66.69
79024;DHT22;70306;44.764;37.688;2023-06-22T01:25:13;22.72;67.95
79024;DHT22;70306;44.764;37.688;2023-06-22T01:29:11;22.68;66.50
79024;DHT22;70306;44.764;37.688;2023-06-22T01:30:16;22.68;67.96
79024;DHT22;70306;44.764;37.688;2023-06-22T01:31:21;22.69;67.53
79024;DHT22;70306;44.764;37.688;2023-06-22T01:32:24;22.71;66.19
79024;DHT22;70306;44.764;37.688;2023-06-22T01:33:27;22.65;65.11
79024;DHT22;70306;44.764;37.688;2023-06-22T01:34:30;22.58;67.38
79024;DHT22;70306;44.764;37.688;2023-06-22T01:35:32;22.61;68.18
79024;DHT22;70306;44.764;37.688;2023-06-22T01:36:36;22.61;66.61
79024;DHT22;70306;44.764;37.688;2023-06-22T01:37:39;22.61;67.19
79024;DHT22;70306;44.764;37.688;2023-06-22T01:38:42;22.64;67.57
79024;DHT22;70306;44.764;37.688;2023-06-22T01:39:44;22.65;67.64
79024;DHT22;70306;44.764;37.688;2023-06-22T01:40:46;22.65;67.72
79024;DHT22;70306;44.764;37.688;2023-06-22T01:41:48;22.66;68.05
79024;DHT22;70306;44.764;37.688;2023-06-22T01:42:51;22.66;67.46
79024;DHT22;70306;44.764;37.688;2023-06-22T01:43:53;22.66;66.56
79024;DHT22;70306;44.764;37.688;2023-06-22T01:44:57;22.68;66.51
79024;DHT22;70306;44.764;37.688;2023-06-22T01:46:01;22.62;66.45
79024;DHT22;70306;44.764;37.688;2023-06-22T01:47:03;22.65;67.01
79024;DHT22;70306;44.764;37.688;2023-06-22T01:48:05;22.58;65.05
79024;DHT22;70306;44.764;37.688;2023-06-22T01:49:08;22.58;66.38
79024;DHT22;70306;44.764;37.688;2023-06-22T01:50:12;22.62;66.10
79024;DHT22;70306;44.764;37.688;2023-06-22T01:51:14;22.55;65.36
79024;DHT22;70306;44.764;37.688;2023-06-22T01:52:16;22.52;65.44
79024;DHT22;70306;44.764;37.688;2023-06-22T01:53:17;22.48;64.74
79024;DHT22;70306;44.764;37.688;2023-06-22T01:54:20;22.43;63.04
79024;DHT22;70306;44.764;37.688;2023-06-22T01:55:21;22.39;62.82
79024;DHT22;70306;44.764;37.688;2023-06-22T01:56:26;22.43;63.88
79024;DHT22;70306;44.764;37.688;2023-06-22T01:57:28;22.45;63.63
79024;DHT22;70306;44.764;37.688;2023-06-22T01:58:32;22.43;63.86
79024;DHT22;70306;44.764;37.688;2023-06-22T01:59:39;22.40;64.30
79024;DHT22;70306;44.764;37.688;2023-06-22T02:00:51;22.36;65.49
79024;DHT22;70306;44.764;37.688;2023-06-22T02:01:59;22.29;64.96
79024;DHT22;70306;44.764;37.688;2023-06-22T02:03:10;22.20;65.15
79024;DHT22;70306;44.764;37.688;2023-06-22T02:04:21;22.13;65.36
79024;DHT22;70306;44.764;37.688;2023-06-22T02:05:36;22.13;66.63
79024;DHT22;70306;44.764;37.688;2023-06-22T02:06:39;22.16;65.12
79024;DHT22;70306;44.764;37.688;2023-06-22T02:08:09;22.10;63.24
79024;DHT22;70306;44.764;37.688;2023-06-22T02:09:16;22.12;65.69
79024;DHT22;70306;44.764;37.688;2023-06-22T02:10:19;22.14;64.57
79024;DHT22;70306;44.764;37.688;2023-06-22T02:11:22;22.18;66.47
79024;DHT22;70306;44.764;37.688;2023-06-22T02:12:28;22.21;65.63
79024;DHT22;70306;44.764;37.688;2023-06-22T02:13:30;22.20;66.46
79024;DHT22;70306;44.764;37.688;2023-06-22T02:14:34;22.16;65.90
79024;DHT22;70306;44.764;37.688;2023-06-22T02:15:36;22.17;67.38
79024;DHT22;70306;44.764;37.688;2023-06-22T02:16:38;22.25;66.77
79024;DHT22;70306;44.764;37.688;2023-06-22T02:17:42;22.21;66.34
79024;DHT22;70306;44.764;37.688;2023-06-22T02:18:47;22.20;65.27
79024;DHT22;70306;44.764;37.688;2023-06-22T02:19:52;22.12;65.48
79024;DHT22;70306;44.764;37.688;2023-06-22T02:20:53;22.05;65.77
79024;DHT22;70306;44.764;37.688;2023-06-22T02:21:55;22.02;67.93
79024;DHT22;70306;44.764;37.688;2023-06-22T02:22:56;22.10;67.86
79024;DHT22;70306;44.764;37.688;2023-06-22T02:23:58;22.18;66.60
79024;DHT22;70306;44.764;37.688;2023-06-22T02:25:00;22.17;65.59
79024;DHT22;70306;44.764;37.688;2023-06-22T02:26:02;22.16;65.90
79024;DHT22;70306;44.764;37.688;2023-06-22T02:27:05;22.12;66.74
79024;DHT22;70306;44.764;37.688;2023-06-22T02:28:08;22.14;65.77
79024;DHT22;70306;44.764;37.688;2023-06-22T02:29:10;22.16;66.49
79024;DHT22;70306;44.764;37.688;2023-06-22T02:30:12;22.18;66.79
79024;DHT22;70306;44.764;37.688;2023-06-22T02:31:14;22.16;66.25
79024;DHT22;70306;44.764;37.688;2023-06-22T02:32:16;22.14;65.73
79024;DHT22;70306;44.764;37.688;2023-06-22T02:33:21;22.13;65.50
79024;DHT22;70306;44.764;37.688;2023-06-22T02:34:23;22.10;65.52
79024;DHT22;70306;44.764;37.688;2023-06-22T02:35:29;22.06;65.27
79024;DHT22;70306;44.764;37.688;2023-06-22T02:36:32;22.03;65.74
79024;DHT22;70306;44.764;37.688;2023-06-22T02:37:36;21.99;66.10
79024;DHT22;70306;44.764;37.688;2023-06-22T02:38:47;21.95;65.97
79024;DHT22;70306;44.764;37.688;2023-06-22T02:39:49;21.92;65.89
79024;DHT22;70306;44.764;37.688;2023-06-22T02:40:51;21.96;66.30
79024;DHT22;70306;44.764;37.688;2023-06-22T02:41:54;21.95;65.93
79024;DHT22;70306;44.764;37.688;2023-06-22T02:42:58;22.00;66.52
79024;DHT22;70306;44.764;37.688;2023-06-22T02:44:04;21.99;65.84
79024;DHT22;70306;44.764;37.688;2023-06-22T02:45:06;21.95;65.96
79024;DHT22;70306;44.764;37.688;2023-06-22T02:46:07;21.93;65.90
79024;DHT22;70306;44.764;37.688;2023-06-22T02:47:09;22.00;66.48
79024;DHT22;70306;44.764;37.688;2023-06-22T02:48:12;22.06;65.76
79024;DHT22;70306;44.764;37.688;2023-06-22T02:49:14;22.10;66.67
79024;DHT22;70306;44.764;37.688;2023-06-22T02:50:17;22.13;66.89
79024;DHT22;70306;44.764;37.688;2023-06-22T02:51:19;22.12;65.57
79024;DHT22;70306;44.764;37.688;2023-06-22T02:52:22;22.16;65.98
79024;DHT22;70306;44.764;37.688;2023-06-22T02:53:23;22.20;65.49
79024;DHT22;70306;44.764;37.688;2023-06-22T02:54:25;22.18;64.89
79024;DHT22;70306;44.764;37.688;2023-06-22T02:55:28;22.21;66.16
79024;DHT22;70306;44.764;37.688;2023-06-22T02:56:33;22.24;65.44
79024;DHT22;70306;44.764;37.688;2023-06-22T02:57:36;22.24;65.39
79024;DHT22;70306;44.764;37.688;2023-06-22T02:58:37;22.25;65.13
79024;DHT22;70306;44.764;37.688;2023-06-22T02:59:43;22.25;64.99
79024;DHT22;70306;44.764;37.688;2023-06-22T03:00:46;22.21;64.99
79024;DHT22;70306;44.764;37.688;2023-06-22T03:01:48;22.18;65.13
79024;DHT22;70306;44.764;37.688;2023-06-22T03:02:58;22.16;65.33
79024;DHT22;70306;44.764;37.688;2023-06-22T03:04:00;22.09;65.12
79024;DHT22;70306;44.764;37.688;2023-06-22T03:05:02;22.05;65.50
79024;DHT22;70306;44.764;37.688;2023-06-22T03:06:05;22.09;65.18
79024;DHT22;70306;44.764;37.688;2023-06-22T03:07:07;22.07;65.34
79024;DHT22;70306;44.764;37.688;2023-06-22T03:08:08;22.10;65.40
79024;DHT22;70306;44.764;37.688;2023-06-22T03:09:10;22.13;65.43
79024;DHT22;70306;44.764;37.688;2023-06-22T03:10:13;22.12;66.76
79024;DHT22;70306;44.764;37.688;2023-06-22T03:11:15;22.20;65.56
79024;DHT22;70306;44.764;37.688;2023-06-22T03:12:17;22.25;65.16
79024;DHT22;70306;44.764;37.688;2023-06-22T03:13:26;22.24;65.61
79024;DHT22;70306;44.764;37.688;2023-06-22T03:14:28;22.25;65.28
79024;DHT22;70306;44.764;37.688;2023-06-22T03:15:30;22.25;65.01
79024;DHT22;70306;44.764;37.688;2023-06-22T03:16:33;22.24;64.72
79024;DHT22;70306;44.764;37.688;2023-06-22T03:17:36;22.24;65.13
79024;DHT22;70306;44.764;37.688;2023-06-22T03:18:38;22.21;65.39
79024;DHT22;70306;44.764;37.688;2023-06-22T03:19:40;22.25;65.42
79024;DHT22;70306;44.764;37.688;2023-06-22T03:20:41;22.25;65.13
79024;DHT22;70306;44.764;37.688;2023-06-22T03:21:44;22.30;65.89
79024;DHT22;70306;44.764;37.688;2023-06-22T03:22:45;22.31;66.05
79024;DHT22;70306;44.764;37.688;2023-06-22T03:23:47;22.33;65.65
79024;DHT22;70306;44.764;37.688;2023-06-22T03:24:51;22.29;65.39
79024;DHT22;70306;44.764;37.688;2023-06-22T03:25:53;22.34;65.15
79024;DHT22;70306;44.764;37.688;2023-06-22T03:26:57;22.31;65.79
79024;DHT22;70306;44.764;37.688;2023-06-22T03:27:58;22.39;65.73
79024;DHT22;70306;44.764;37.688;2023-06-22T03:29:02;22.43;65.13
79024;DHT22;70306;44.764;37.688;2023-06-22T03:30:06;22.47;65.80
79024;DHT22;70306;44.764;37.688;2023-06-22T03:31:08;22.51;65.08
79024;DHT22;70306;44.764;37.688;2023-06-22T03:32:12;22.48;64.90
79024;DHT22;70306;44.764;37.688;2023-06-22T03:33:14;22.51;65.50
79024;DHT22;70306;44.764;37.688;2023-06-22T03:34:15;22.59;64.84
79024;DHT22;70306;44.764;37.688;2023-06-22T03:35:18;22.62;65.12
79024;DHT22;70306;44.764;37.688;2023-06-22T03:36:21;22.68;65.38
79024;DHT22;70306;44.764;37.688;2023-06-22T03:37:23;22.72;64.28
79024;DHT22;70306;44.764;37.688;2023-06-22T03:38:25;22.72;64.33
79024;DHT22;70306;44.764;37.688;2023-06-22T03:39:31;22.76;64.93
79024;DHT22;70306;44.764;37.688;2023-06-22T03:40:33;22.77;64.12
79024;DHT22;70306;44.764;37.688;2023-06-22T03:41:36;22.79;64.59
79024;DHT22;70306;44.764;37.688;2023-06-22T03:42:37;22.85;64.28
79024;DHT22;70306;44.764;37.688;2023-06-22T03:43:39;22.89;64.01
79024;DHT22;70306;44.764;37.688;2023-06-22T03:44:41;22.92;64.71
79024;DHT22;70306;44.764;37.688;2023-06-22T03:45:42;22.99;63.71
79024;DHT22;70306;44.764;37.688;2023-06-22T03:46:46;22.95;63.83
79024;DHT22;70306;44.764;37.688;2023-06-22T03:47:48;22.96;63.58
79024;DHT22;70306;44.764;37.688;2023-06-22T03:48:51;22.96;63.44
79024;DHT22;70306;44.764;37.688;2023-06-22T03:49:52;22.99;63.19
79024;DHT22;70306;44.764;37.688;2023-06-22T03:50:56;23.02;63.14
79024;DHT22;70306;44.764;37.688;2023-06-22T03:51:57;23.03;63.43
79024;DHT22;70306;44.764;37.688;2023-06-22T03:52:59;23.07;63.81
79024;DHT22;70306;44.764;37.688;2023-06-22T03:54:01;23.16;63.46
79024;DHT22;70306;44.764;37.688;2023-06-22T03:55:03;23.24;63.38
79024;DHT22;70306;44.764;37.688;2023-06-22T03:56:07;23.31;62.98
79024;DHT22;70306;44.764;37.688;2023-06-22T03:57:08;23.30;62.07
79024;DHT22;70306;44.764;37.688;2023-06-22T03:58:10;23.27;63.12
79024;DHT22;70306;44.764;37.688;2023-06-22T03:59:12;23.33;63.07
79024;DHT22;70306;44.764;37.688;2023-06-22T04:00:14;23.37;62.19
79024;DHT22;70306;44.764;37.688;2023-06-22T04:01:19;23.40;62.48
79024;DHT22;70306;44.764;37.688;2023-06-22T04:02:20;23.45;62.00
79024;DHT22;70306;44.764;37.688;2023-06-22T04:03:22;23.47;61.97
79024;DHT22;70306;44.764;37.688;2023-06-22T04:04:23;23.52;62.79
79024;DHT22;70306;44.764;37.688;2023-06-22T04:05:25;23.62;62.32
79024;DHT22;70306;44.764;37.688;2023-06-22T04:06:27;23.69;62.71
79024;DHT22;70306;44.764;37.688;2023-06-22T04:07:29;23.78;62.41
79024;DHT22;70306;44.764;37.688;2023-06-22T04:08:30;23.82;61.07
79024;DHT22;70306;44.764;37.688;2023-06-22T04:09:32;23.85;61.32
79024;DHT22;70306;44.764;37.688;2023-06-22T04:10:34;23.92;61.03
79024;DHT22;70306;44.764;37.688;2023-06-22T04:11:35;23.92;59.79
79024;DHT22;70306;44.764;37.688;2023-06-22T04:12:37;23.96;60.16
79024;DHT22;70306;44.764;37.688;2023-06-22T04:13:39;24.05;60.01
79024;DHT22;70306;44.764;37.688;2023-06-22T04:14:40;24.05;59.41
79024;DHT22;70306;44.764;37.688;2023-06-22T04:15:42;24.07;59.02
79024;DHT22;70306;44.764;37.688;2023-06-22T04:16:44;24.12;59.07
79024;DHT22;70306;44.764;37.688;2023-06-22T04:17:45;24.14;59.31
79024;DHT22;70306;44.764;37.688;2023-06-22T04:18:47;24.13;58.72
79024;DHT22;70306;44.764;37.688;2023-06-22T04:19:48;24.17;59.22
79024;DHT22;70306;44.764;37.688;2023-06-22T04:20:50;24.21;58.95
79024;DHT22;70306;44.764;37.688;2023-06-22T04:21:52;24.27;59.02
79024;DHT22;70306;44.764;37.688;2023-06-22T04:22:54;24.31;58.03
79024;DHT22;70306;44.764;37.688;2023-06-22T04:23:55;24.34;57.03
79024;DHT22;70306;44.764;37.688;2023-06-22T04:24:57;24.34;56.27
79024;DHT22;70306;44.764;37.688;2023-06-22T04:25:59;24.40;57.64
79024;DHT22;70306;44.764;37.688;2023-06-22T04:27:03;24.49;58.16
79024;DHT22;70306;44.764;37.688;2023-06-22T04:28:04;24.61;57.63
79024;DHT22;70306;44.764;37.688;2023-06-22T04:29:06;24.69;55.77
79024;DHT22;70306;44.764;37.688;2023-06-22T04:30:10;24.75;55.27
79024;DHT22;70306;44.764;37.688;2023-06-22T04:31:12;24.82;55.54
79024;DHT22;70306;44.764;37.688;2023-06-22T04:32:14;24.87;54.28
79024;DHT22;70306;44.764;37.688;2023-06-22T04:33:16;24.92;53.20
79024;DHT22;70306;44.764;37.688;2023-06-22T04:34:18;24.90;52.84
79024;DHT22;70306;44.764;37.688;2023-06-22T04:35:20;25.00;52.74
79024;DHT22;70306;44.764;37.688;2023-06-22T04:36:23;25.02;52.17
79024;DHT22;70306;44.764;37.688;2023-06-22T04:37:25;25.07;52.09
79024;DHT22;70306;44.764;37.688;2023-06-22T04:38:27;25.16;51.95
79024;DHT22;70306;44.764;37.688;2023-06-22T04:39:28;25.19;52.50
79024;DHT22;70306;44.764;37.688;2023-06-22T04:40:30;25.27;52.71
79024;DHT22;70306;44.764;37.688;2023-06-22T04:41:32;25.33;53.22
79024;DHT22;70306;44.764;37.688;2023-06-22T04:42:43;25.38;52.92
79024;DHT22;70306;44.764;37.688;2023-06-22T04:43:53;25.45;52.61
79024;DHT22;70306;44.764;37.688;2023-06-22T04:44:55;25.48;51.46
79024;DHT22;70306;44.764;37.688;2023-06-22T04:45:57;25.55;51.26
79024;DHT22;70306;44.764;37.688;2023-06-22T04:47:04;25.65;51.96
79024;DHT22;70306;44.764;37.688;2023-06-22T04:48:09;25.73;52.62
79024;DHT22;70306;44.764;37.688;2023-06-22T04:49:11;25.75;52.10
79024;DHT22;70306;44.764;37.688;2023-06-22T04:50:13;25.73;52.23
79024;DHT22;70306;44.764;37.688;2023-06-22T04:51:15;25.68;52.14
79024;DHT22;70306;44.764;37.688;2023-06-22T04:52:16;25.75;53.22
79024;DHT22;70306;44.764;37.688;2023-06-22T04:53:19;25.75;52.75
79024;DHT22;70306;44.764;37.688;2023-06-22T04:54:20;25.69;52.33
79024;DHT22;70306;44.764;37.688;2023-06-22T04:55:24;25.66;53.05
79024;DHT22;70306;44.764;37.688;2023-06-22T04:56:27;25.65;53.07
79024;DHT22;70306;44.764;37.688;2023-06-22T04:57:32;25.59;53.67
79024;DHT22;70306;44.764;37.688;2023-06-22T04:58:34;25.59;53.50
79024;DHT22;70306;44.764;37.688;2023-06-22T04:59:36;25.63;53.66
79024;DHT22;70306;44.764;37.688;2023-06-22T05:00:40;25.65;53.79
79024;DHT22;70306;44.764;37.688;2023-06-22T05:01:41;25.65;54.26
79024;DHT22;70306;44.764;37.688;2023-06-22T05:02:44;25.57;53.83
79024;DHT22;70306;44.764;37.688;2023-06-22T05:03:47;25.49;53.18
79024;DHT22;70306;44.764;37.688;2023-06-22T05:04:48;25.45;54.06
79024;DHT22;70306;44.764;37.688;2023-06-22T05:05:52;25.52;54.48
79024;DHT22;70306;44.764;37.688;2023-06-22T05:06:55;25.55;53.03
79024;DHT22;70306;44.764;37.688;2023-06-22T05:07:57;25.57;53.72
79024;DHT22;70306;44.764;37.688;2023-06-22T05:09:01;25.62;54.33
79024;DHT22;70306;44.764;37.688;2023-06-22T05:10:05;25.71;53.51
79024;DHT22;70306;44.764;37.688;2023-06-22T05:11:06;25.76;51.17
79024;DHT22;70306;44.764;37.688;2023-06-22T05:12:08;25.76;50.84
79024;DHT22;70306;44.764;37.688;2023-06-22T05:13:10;25.76;52.06
79024;DHT22;70306;44.764;37.688;2023-06-22T05:14:11;25.76;52.36
79024;DHT22;70306;44.764;37.688;2023-06-22T05:15:13;25.79;51.98
79024;DHT22;70306;44.764;37.688;2023-06-22T05:16:16;25.80;52.43
79024;DHT22;70306;44.764;37.688;2023-06-22T05:17:17;25.82;52.49
79024;DHT22;70306;44.764;37.688;2023-06-22T05:18:20;25.86;52.78
79024;DHT22;70306;44.764;37.688;2023-06-22T05:19:25;25.93;51.70
79024;DHT22;70306;44.764;37.688;2023-06-22T05:20:32;25.93;52.66
79024;DHT22;70306;44.764;37.688;2023-06-22T05:21:37;26.00;52.37
79024;DHT22;70306;44.764;37.688;2023-06-22T05:22:40;26.00;50.48
79024;DHT22;70306;44.764;37.688;2023-06-22T05:24:05;25.89;50.76
79024;DHT22;70306;44.764;37.688;2023-06-22T05:25:08;25.89;51.52
79024;DHT22;70306;44.764;37.688;2023-06-22T05:26:10;25.92;50.43
79024;DHT22;70306;44.764;37.688;2023-06-22T05:30:02;25.96;50.63
79024;DHT22;70306;44.764;37.688;2023-06-22T05:31:22;25.97;50.59
79024;DHT22;70306;44.764;37.688;2023-06-22T05:32:24;25.94;51.74
79024;DHT22;70306;44.764;37.688;2023-06-22T05:33:25;25.97;51.19
79024;DHT22;70306;44.764;37.688;2023-06-22T05:34:32;25.99;50.52
79024;DHT22;70306;44.764;37.688;2023-06-22T05:37:05;26.01;51.06
79024;DHT22;70306;44.764;37.688;2023-06-22T05:38:07;26.01;51.35
79024;DHT22;70306;44.764;37.688;2023-06-22T05:39:12;26.08;51.47
79024;DHT22;70306;44.764;37.688;2023-06-22T05:40:36;26.18;51.61
79024;DHT22;70306;44.764;37.688;2023-06-22T05:43:16;26.25;50.88
79024;DHT22;70306;44.764;37.688;2023-06-22T05:45:57;26.25;50.14
79024;DHT22;70306;44.764;37.688;2023-06-22T05:47:04;26.28;50.89
79024;DHT22;70306;44.764;37.688;2023-06-22T05:48:24;26.38;50.56
79024;DHT22;70306;44.764;37.688;2023-06-22T05:49:30;26.34;50.14
79024;DHT22;70306;44.764;37.688;2023-06-22T05:50:39;26.35;49.88
79024;DHT22;70306;44.764;37.688;2023-06-22T05:51:41;26.35;50.76
79024;DHT22;70306;44.764;37.688;2023-06-22T05:52:42;26.40;50.24
79024;DHT22;70306;44.764;37.688;2023-06-22T05:53:44;26.41;49.78
79024;DHT22;70306;44.764;37.688;2023-06-22T05:54:50;26.40;49.87
79024;DHT22;70306;44.764;37.688;2023-06-22T05:55:52;26.40;50.27
79024;DHT22;70306;44.764;37.688;2023-06-22T05:56:54;26.40;48.92
79024;DHT22;70306;44.764;37.688;2023-06-22T05:59:15;26.41;50.31
79024;DHT22;70306;44.764;37.688;2023-06-22T06:00:22;26.49;50.03
79024;DHT22;70306;44.764;37.688;2023-06-22T06:01:24;26.51;49.84
79024;DHT22;70306;44.764;37.688;2023-06-22T06:04:19;26.59;50.03
79024;DHT22;70306;44.764;37.688;2023-06-22T06:05:20;26.49;49.70
79024;DHT22;70306;44.764;37.688;2023-06-22T06:06:22;26.49;50.59
79024;DHT22;70306;44.764;37.688;2023-06-22T06:07:29;26.53;51.08
79024;DHT22;70306;44.764;37.688;2023-06-22T06:08:31;26.55;49.87
79024;DHT22;70306;44.764;37.688;2023-06-22T06:09:33;26.48;50.40
79024;DHT22;70306;44.764;37.688;2023-06-22T06:10:53;26.55;51.23
79024;DHT22;70306;44.764;37.688;2023-06-22T06:11:56;26.60;49.53
79024;DHT22;70306;44.764;37.688;2023-06-22T06:13:16;26.65;50.96
79024;DHT22;70306;44.764;37.688;2023-06-22T06:15:57;26.92;49.31
79024;DHT22;70306;44.764;37.688;2023-06-22T06:17:00;26.86;49.42
79024;DHT22;70306;44.764;37.688;2023-06-22T06:18:02;26.85;49.81
79024;DHT22;70306;44.764;37.688;2023-06-22T06:20:44;26.86;48.83
79024;DHT22;70306;44.764;37.688;2023-06-22T06:21:46;26.87;49.34
79024;DHT22;70306;44.764;37.688;2023-06-22T06:22:48;26.99;49.67
79024;DHT22;70306;44.764;37.688;2023-06-22T06:23:50;26.94;49.26
79024;DHT22;70306;44.764;37.688;2023-06-22T06:24:56;26.92;48.66
79024;DHT22;70306;44.764;37.688;2023-06-22T06:26:03;26.94;49.86
79024;DHT22;70306;44.764;37.688;2023-06-22T06:27:08;27.03;48.95
79024;DHT22;70306;44.764;37.688;2023-06-22T06:28:10;27.04;49.24
79024;DHT22;70306;44.764;37.688;2023-06-22T06:29:11;27.10;49.03
79024;DHT22;70306;44.764;37.688;2023-06-22T06:30:15;27.17;48.60
79024;DHT22;70306;44.764;37.688;2023-06-22T06:31:17;27.20;49.22
79024;DHT22;70306;44.764;37.688;2023-06-22T06:32:19;27.28;49.34
79024;DHT22;70306;44.764;37.688;2023-06-22T06:33:20;27.30;49.92
79024;DHT22;70306;44.764;37.688;2023-06-22T06:34:22;27.35;48.17
79024;DHT22;70306;44.764;37.688;2023-06-22T06:35:24;27.35;48.74
79024;DHT22;70306;44.764;37.688;2023-06-22T06:36:26;27.44;47.16
79024;DHT22;70306;44.764;37.688;2023-06-22T06:37:27;27.42;47.37
79024;DHT22;70306;44.764;37.688;2023-06-22T06:38:32;27.48;48.69
79024;DHT22;70306;44.764;37.688;2023-06-22T06:39:34;27.49;48.86
79024;DHT22;70306;44.764;37.688;2023-06-22T06:40:36;27.48;47.33
79024;DHT22;70306;44.764;37.688;2023-06-22T06:41:37;27.46;46.58
79024;DHT22;70306;44.764;37.688;2023-06-22T06:42:46;27.38;47.57
79024;DHT22;70306;44.764;37.688;2023-06-22T06:43:48;27.39;48.59
79024;DHT22;70306;44.764;37.688;2023-06-22T06:44:50;27.45;47.45
79024;DHT22;70306;44.764;37.688;2023-06-22T06:45:52;27.42;48.49
79024;DHT22;70306;44.764;37.688;2023-06-22T06:46:53;27.51;48.20
79024;DHT22;70306;44.764;37.688;2023-06-22T06:47:55;27.46;47.22
79024;DHT22;70306;44.764;37.688;2023-06-22T06:48:57;27.46;47.62
79024;DHT22;70306;44.764;37.688;2023-06-22T06:49:59;27.56;47.48
79024;DHT22;70306;44.764;37.688;2023-06-22T06:51:01;27.61;47.16
79024;DHT22;70306;44.764;37.688;2023-06-22T06:52:02;27.58;47.56
79024;DHT22;70306;44.764;37.688;2023-06-22T06:53:04;27.59;47.93
79024;DHT22;70306;44.764;37.688;2023-06-22T06:54:07;27.61;47.71
79024;DHT22;70306;44.764;37.688;2023-06-22T06:55:09;27.63;47.10
79024;DHT22;70306;44.764;37.688;2023-06-22T06:56:16;27.62;48.59